Latest Coastal Weather Observations for Shark Bay Airport

IDW60701

Issued at 3:03 pm WST Thursday 23 February 2017 (issued every 10 minutes, with the page automatically refreshed every 10 minutes)

About coastal observations | Map of coastal stations | Coastal observations for WA | Marine services | Other Formats
Station Details ID: 006105 Name: SHARK BAY AIRPORT Lat: -25.89 Lon: 113.58 Height: 33.8 m
Data from the previous 72 hours. | See also: Recent months at Shark Bay Airport
Date/Time
WST
Temp
°C
Wind Pressure Rain since
9am
mm
Weather Cloud Vis
km
Sea
Height
m
Swell
Dir  Spd
kts
Gust
kts
hPa Trend Height
m
Period
s
Dir
23/02:30pm 36.0 SW 13 17 1012.8 - 0.0 - - - - - - -
23/02:00pm 37.1 SSW 10 14 1013.0 - 0.0 - - - - - - -
23/01:30pm 36.7 ENE 5 10 1013.3 - 0.0 - - - - - - -
23/01:00pm 36.9 SE 7 10 1013.4 - 0.0 - - - - - - -
23/12:30pm 35.2 ESE 6 9 1013.7 - 0.0 - - - - - - -
23/12:00pm 34.1 E 7 10 1014.0 - 0.0 - - - - - - -
23/11:30am 33.9 E 8 11 1014.3 - 0.0 - - - - - - -
23/11:00am 32.6 E 8 13 1014.7 - 0.0 - - - - - - -
23/10:30am 31.7 E 11 14 1014.9 - 0.0 - - - - - - -
23/10:00am 30.7 E 10 14 1015.0 - 0.0 - - - - - - -
23/09:30am 29.9 E 11 15 1015.1 - 0.0 - - - - - - -
23/09:00am 28.6 ESE 11 17 1015.3 - 0.0 - - - - - - -
23/08:30am 27.1 ESE 13 17 1015.3 - 0.0 - - - - - - -
23/08:00am 25.3 ESE 8 11 1015.2 - 0.0 - - - - - - -
23/07:30am 23.1 SE 7 9 1015.1 - 0.0 - - - - - - -
23/07:00am 19.9 SE 5 7 1014.8 - 0.0 - - - - - - -
23/06:30am 17.7 SSE 5 7 1014.7 - 0.0 - - - - - - -
23/06:00am 17.9 SSE 6 7 1014.3 - 0.0 - - - - - - -
23/05:30am 18.3 SE 6 8 1014.0 - 0.0 - - - - - - -
23/05:00am 18.7 SSE 7 9 1013.9 - 0.0 - - - - - - -
23/04:30am 19.0 SSE 7 9 1013.9 - 0.0 - - - - - - -
23/04:00am 19.2 SSE 7 10 1013.9 - 0.0 - - - - - - -
23/03:30am 19.4 SSE 7 8 1014.0 - 0.0 - - - - - - -
23/03:00am 19.5 SSE 7 9 1014.0 - 0.0 - - - - - - -
23/02:30am 19.4 SSW 5 6 1014.1 - 0.0 - - - - - - -
23/02:00am 20.1 S 5 7 1014.2 - 0.0 - - - - - - -
23/01:30am 20.7 SSW 8 10 1014.4 - 0.0 - - - - - - -
23/01:00am 21.2 SSW 9 11 1014.7 - 0.0 - - - - - - -
23/12:30am 21.4 S 9 12 1014.9 - 0.0 - - - - - - -
23/12:00am 21.5 S 11 15 1015.1 - 0.0 - - - - - - -
 
Date/Time
WST
Temp
°C
Wind Pressure Rain since
9am
mm
Weather Cloud Vis
km
Sea
Height
m
Swell
Dir  Spd
kts
Gust
kts
hPa Trend Height
m
Period
s
Dir
22/11:30pm 21.6 S 12 14 1015.3 - 0.0 - - - - - - -
22/11:00pm 21.8 S 12 16 1015.5 - 0.0 - - - - - - -
22/10:30pm 21.9 SSW 12 16 1015.6 - 0.0 - - - - - - -
22/10:00pm 21.9 S 13 18 1015.7 - 0.0 - - - - - - -
22/09:30pm 22.0 S 13 18 1015.6 - 0.0 - - - - - - -
22/09:00pm 22.2 S 12 16 1015.4 - 0.0 - - - - - - -
22/08:30pm 22.4 SSW 13 18 1015.2 - 0.0 - - - - - - -
22/08:00pm 22.6 SSW 12 16 1014.9 - 0.0 - - - - - - -
22/07:30pm 23.1 SSW 13 17 1014.7 - 0.0 - - - - - - -
22/07:00pm 23.9 SSW 14 18 1014.4 - 0.0 - - - - - - -
22/06:30pm 25.0 SSW 16 20 1014.1 - 0.0 - - - - - - -
22/06:00pm 26.1 SW 15 20 1013.9 - 0.0 - - - - - - -
22/05:30pm 28.0 SW 13 17 1013.8 - 0.0 - - - - - - -
22/05:00pm 28.4 SW 13 18 1013.9 - 0.0 - - - - - - -
22/04:30pm 29.0 SW 13 17 1013.9 - 0.0 - - - - - - -
22/04:00pm 29.5 SW 14 18 1013.8 - 0.0 - - - - - - -
22/03:30pm 30.1 SSE 7 13 1014.1 - 0.0 - - - - - - -
22/03:00pm 30.7 SE 8 15 1014.2 - 0.0 - - - - - - -
22/02:30pm 30.7 ESE 7 12 1014.4 - 0.0 - - - - - - -
22/02:00pm 30.7 ESE 9 13 1014.7 - 0.0 - - - - - - -
22/01:30pm 29.7 SE 10 15 1015.1 - 0.0 - - - - - - -
22/01:00pm 28.8 SE 10 18 1015.4 - 0.0 - - - - - - -
22/12:30pm 28.2 SE 9 16 1015.8 - 0.0 - - - - - - -
22/12:00pm 27.5 SE 12 16 1016.1 - 0.0 - - - - - - -
22/11:30am 27.0 SE 10 16 1016.3 - 0.0 - - - - - - -
22/11:00am 25.6 SE 12 17 1016.6 - 0.0 - - - - - - -
22/10:30am 24.9 SE 13 18 1016.9 - 0.0 - - - - - - -
22/10:00am 24.0 SE 12 19 1017.0 - 0.0 - - - - - - -
22/09:30am 23.2 SE 13 18 1017.1 - 0.0 - - - - - - -
22/09:00am 21.6 SE 13 18 1017.3 - 0.0 - - - - - - -
22/08:30am 20.4 SE 15 19 1017.1 - 0.0 - - - - - - -
22/08:00am 19.9 SE 13 18 1016.9 - 0.0 - - - - - - -
22/07:30am 18.8 SSE 13 19 1016.8 - 0.0 - - - - - - -
22/07:00am 17.5 SSE 11 15 1016.5 - 0.0 - - - - - - -
22/06:30am 16.6 SSE 10 13 1016.2 - 0.0 - - - - - - -
22/06:00am 16.7 SSE 10 16 1016.0 - 0.0 - - - - - - -
22/05:30am 17.0 SSE 12 17 1015.7 - 0.0 - - - - - - -
22/05:00am 17.4 SSE 12 18 1015.6 - 0.0 - - - - - - -
22/04:30am 17.7 SSE 11 18 1015.6 - 0.0 - - - - - - -
22/04:00am 18.0 SSE 11 15 1015.3 - 0.0 - - - - - - -
22/03:30am 18.3 SSE 10 14 1015.1 - 0.0 - - - - - - -
22/03:00am 18.5 SSE 11 15 1014.9 - 0.0 - - - - - - -
22/02:30am 18.8 SSE 12 17 1014.8 - 0.0 - - - - - - -
22/02:00am 19.1 SSE 13 21 1014.9 - 0.0 - - - - - - -
22/01:30am 19.4 SSE 13 19 1015.2 - 0.0 - - - - - - -
22/01:00am 19.6 SSE 13 19 1015.5 - 0.0 - - - - - - -
22/12:30am 19.9 SSE 13 19 1015.4 - 0.0 - - - - - - -
22/12:00am 20.3 SSE 13 21 1015.4 - 0.0 - - - - - - -
 
Date/Time
WST
Temp
°C
Wind Pressure Rain since
9am
mm
Weather Cloud Vis
km
Sea
Height
m
Swell
Dir  Spd
kts
Gust
kts
hPa Trend Height
m
Period
s
Dir
21/11:30pm 20.8 SSE 13 21 1015.6 - 0.0 - - - - - - -
21/11:00pm 21.1 SSE 14 22 1015.5 - 0.0 - - - - - - -
21/10:47pm 21.3 SSE 15 25 1015.5 - 0.0 - - - - - - -
21/10:30pm 21.4 S 16 23 1015.7 - 0.0 - - - - - - -
21/10:00pm 21.4 S 15 22 1015.5 - 0.0 - - - - - - -
21/09:33pm 21.5 S 15 25 1015.4 - 0.0 - - - - - - -
21/09:30pm 21.5 S 16 25 1015.4 - 0.0 - - - - - - -
21/09:24pm 21.6 S 15 25 1015.4 - 0.0 - - - - - - -
21/09:00pm 21.6 S 16 23 1015.2 - 0.0 - - - - - - -
21/08:51pm 21.6 S 16 26 1015.1 - 0.0 - - - - - - -
21/08:30pm 21.7 S 16 22 1015.0 - 0.0 - - - - - - -
21/08:01pm 21.9 S 17 27 1014.7 - 0.0 - - - - - - -
21/08:00pm 21.9 S 16 24 1014.7 - 0.0 - - - - - - -
21/07:30pm 22.2 S 17 24 1014.4 - 0.0 - - - - - - -
21/07:13pm 22.4 S 17 28 1014.2 - 0.0 - - - - - - -
21/07:00pm 22.6 S 17 25 1014.0 - 0.0 - - - - - - -
21/06:30pm 23.4 S 18 26 1013.6 - 0.0 - - - - - - -
21/06:05pm 24.0 SSW 18 28 1013.4 - 0.0 - - - - - - -
21/06:00pm 24.2 SSW 18 25 1013.3 - 0.0 - - - - - - -
21/05:36pm 24.5 S 19 29 1013.2 - 0.0 - - - - - - -
21/05:30pm 24.6 SSW 20 27 1013.2 - 0.0 - - - - - - -
21/05:00pm 25.2 S 19 27 1013.0 - 0.0 - - - - - - -
21/04:30pm 26.0 S 20 26 1013.0 - 0.0 - - - - - - -
21/04:15pm 26.3 S 17 27 1013.0 - 0.0 - - - - - - -
21/04:00pm 26.9 SSW 19 25 1013.0 - 0.0 - - - - - - -
21/03:30pm 27.0 SSW 18 25 1013.1 - 0.0 - - - - - - -
21/03:00pm 27.1 SSW 19 25 1013.2 - 0.0 - - - - - - -
21/02:30pm 27.3 S 18 23 1013.5 - 0.0 - - - - - - -
21/02:00pm 27.5 SSW 19 26 1013.5 - 0.0 - - - - - - -
21/01:30pm 27.5 SSW 18 26 1013.6 - 0.0 - - - - - - -
21/01:04pm 27.9 S 17 27 1013.8 - 0.0 - - - - - - -
21/01:00pm 27.7 S 17 25 1013.9 - 0.0 - - - - - - -
21/12:30pm 27.6 S 14 19 1014.1 - 0.0 - - - - - - -
21/12:00pm 26.9 S 18 25 1014.4 - 0.0 - - - - - - -
21/11:41am 26.7 S 17 27 1014.5 - 0.0 - - - - - - -
21/11:30am 26.6 S 18 24 1014.6 - 0.0 - - - - - - -
21/11:19am 26.2 S 16 26 1014.6 - 0.0 - - - - - - -
21/11:00am 26.0 S 18 25 1014.9 - 0.0 - - - - - - -
21/10:30am 25.7 S 16 23 1014.9 - 0.0 - - - - - - -
21/10:00am 25.7 S 17 26 1015.0 - 0.0 - - - - - - -
21/09:40am 25.4 S 16 26 1014.9 - 0.0 - - - - - - -
21/09:30am 25.3 S 17 23 1014.9 - 0.0 - - - - - - -
21/09:00am 24.5 S 18 23 1014.8 - 0.0 - - - - - - -
21/08:30am 24.1 SSE 16 26 1014.5 - 0.0 - - - - - - -
21/08:29am 24.0 SSE 16 26 1014.5 - 0.0 - - - - - - -
21/08:00am 23.8 SSE 17 22 1014.2 - 0.0 - - - - - - -
21/07:30am 23.3 SSE 13 19 1013.9 - 0.0 - - - - - - -
21/07:00am 22.5 SSE 11 14 1013.4 - 0.0 - - - - - - -
21/06:30am 21.7 SSE 10 16 1013.0 - 0.0 - - - - - - -
21/06:00am 21.7 SSE 10 14 1012.8 - 0.0 - - - - - - -
21/05:30am 21.8 S 10 14 1012.4 - 0.0 - - - - - - -
21/05:00am 22.0 S 13 18 1012.2 - 0.0 - - - - - - -
21/04:30am 22.2 S 14 21 1012.0 - 0.0 - - - - - - -
21/04:00am 22.4 S 13 21 1011.9 - 0.0 - - - - - - -
21/03:30am 22.6 S 13 18 1011.8 - 0.0 - - - - - - -
21/03:00am 22.7 S 15 21 1011.8 - 0.0 - - - - - - -
21/02:30am 22.9 S 16 22 1011.7 - 0.0 - - - - - - -
21/02:00am 23.0 S 15 21 1011.6 - 0.0 - - - - - - -
21/01:30am 23.0 S 14 22 1011.9 - 0.0 - - - - - - -
21/01:00am 23.1 S 11 17 1011.8 - 0.0 - - - - - - -
21/12:30am 23.2 S 12 16 1011.9 - 0.0 - - - - - - -
21/12:00am 23.4 S 13 19 1012.1 - 0.0 - - - - - - -
 
Date/Time
WST
Temp
°C
Wind Pressure Rain since
9am
mm
Weather Cloud Vis
km
Sea
Height
m
Swell
Dir  Spd
kts
Gust
kts
hPa Trend Height
m
Period
s
Dir
20/11:30pm 23.7 S 13 17 1011.9 - 0.0 - - - - - - -
20/11:00pm 23.9 SSW 14 18 1012.1 - 0.0 - - - - - - -
20/10:30pm 24.0 SSW 11 19 1012.1 - 0.0 - - - - - - -
20/10:00pm 24.3 S 11 18 1012.0 - 0.0 - - - - - - -
20/09:30pm 24.4 S 12 17 1012.0 - 0.0 - - - - - - -
20/09:00pm 24.4 S 13 17 1011.7 - 0.0 - - - - - - -
20/08:30pm 24.4 S 12 17 1011.8 - 0.0 - - - - - - -
20/08:00pm 24.5 S 12 17 1011.7 - 0.0 - - - - - - -
20/07:30pm 24.8 S 12 16 1011.4 - 0.0 - - - - - - -
20/07:00pm 25.4 S 13 19 1011.0 - 0.0 - - - - - - -
20/06:30pm 26.1 S 13 17 1010.5 - 0.0 - - - - - - -
20/06:00pm 27.3 SSW 14 18 1010.0 - 0.0 - - - - - - -
20/05:30pm 28.2 SSW 15 20 1009.8 - 0.0 - - - - - - -
20/05:00pm 29.0 SSW 14 18 1009.4 - 0.0 - - - - - - -
20/04:30pm 29.2 SSW 12 16 1009.4 - 0.0 - - - - - - -
20/04:00pm 29.4 SSW 11 16 1009.6 - 0.0 - - - - - - -
20/03:30pm 30.4 SSW 13 16 1009.7 - 0.0 - - - - - - -

Other Formats:

Comma delimited format used in spreadsheet applications
http://www.bom.gov.au/fwo/IDW60701/IDW60701.95402.axf

JavaScript Object Notation format (JSON) in row-major order
http://www.bom.gov.au/fwo/IDW60701/IDW60701.95402.json